sensor_id;sensor_type;location;lat;lon;timestamp;P1;durP1;ratioP1;P2;durP2;ratioP2
34960;SDS011;30789;52.030;7.110;2023-11-21T00:00:20;15.00;;;9.25;;
34960;SDS011;30789;52.030;7.110;2023-11-21T00:02:47;14.80;;;9.18;;
34960;SDS011;30789;52.030;7.110;2023-11-21T00:05:15;17.08;;;9.63;;
34960;SDS011;30789;52.030;7.110;2023-11-21T00:07:42;12.20;;;8.80;;
34960;SDS011;30789;52.030;7.110;2023-11-21T00:10:13;15.75;;;9.50;;
34960;SDS011;30789;52.030;7.110;2023-11-21T00:12:41;17.75;;;9.75;;
34960;SDS011;30789;52.030;7.110;2023-11-21T00:15:08;16.50;;;9.30;;
34960;SDS011;30789;52.030;7.110;2023-11-21T00:17:37;16.02;;;9.63;;
34960;SDS011;30789;52.030;7.110;2023-11-21T00:20:07;17.10;;;10.02;;
34960;SDS011;30789;52.030;7.110;2023-11-21T00:22:37;18.55;;;10.10;;
34960;SDS011;30789;52.030;7.110;2023-11-21T00:25:05;12.32;;;8.57;;
34960;SDS011;30789;52.030;7.110;2023-11-21T00:27:35;16.05;;;9.80;;
34960;SDS011;30789;52.030;7.110;2023-11-21T00:30:04;20.27;;;9.52;;
34960;SDS011;30789;52.030;7.110;2023-11-21T00:32:39;17.08;;;10.55;;
34960;SDS011;30789;52.030;7.110;2023-11-21T00:35:06;18.75;;;9.35;;
34960;SDS011;30789;52.030;7.110;2023-11-21T00:37:35;19.42;;;9.95;;
34960;SDS011;30789;52.030;7.110;2023-11-21T00:40:05;18.20;;;9.65;;
34960;SDS011;30789;52.030;7.110;2023-11-21T00:42:33;15.70;;;9.25;;
34960;SDS011;30789;52.030;7.110;2023-11-21T00:45:01;15.27;;;9.43;;
34960;SDS011;30789;52.030;7.110;2023-11-21T00:47:28;15.27;;;9.55;;
34960;SDS011;30789;52.030;7.110;2023-11-21T00:49:57;20.10;;;9.95;;
34960;SDS011;30789;52.030;7.110;2023-11-21T00:52:24;16.50;;;9.55;;
34960;SDS011;30789;52.030;7.110;2023-11-21T00:54:51;17.45;;;10.55;;
34960;SDS011;30789;52.030;7.110;2023-11-21T00:57:18;15.68;;;9.50;;
34960;SDS011;30789;52.030;7.110;2023-11-21T00:59:49;16.17;;;9.70;;
34960;SDS011;30789;52.030;7.110;2023-11-21T01:02:22;15.10;;;9.65;;
34960;SDS011;30789;52.030;7.110;2023-11-21T01:04:48;16.23;;;9.23;;
34960;SDS011;30789;52.030;7.110;2023-11-21T01:07:15;15.00;;;10.43;;
34960;SDS011;30789;52.030;7.110;2023-11-21T01:09:52;15.57;;;10.00;;
34960;SDS011;30789;52.030;7.110;2023-11-21T01:12:20;16.52;;;9.40;;
34960;SDS011;30789;52.030;7.110;2023-11-21T01:14:51;14.07;;;8.75;;
34960;SDS011;30789;52.030;7.110;2023-11-21T01:17:18;15.70;;;9.63;;
34960;SDS011;30789;52.030;7.110;2023-11-21T01:19:44;17.42;;;10.27;;
34960;SDS011;30789;52.030;7.110;2023-11-21T01:22:11;18.77;;;11.13;;
34960;SDS011;30789;52.030;7.110;2023-11-21T01:24:44;20.15;;;11.52;;
34960;SDS011;30789;52.030;7.110;2023-11-21T01:27:10;19.88;;;10.93;;
34960;SDS011;30789;52.030;7.110;2023-11-21T01:29:37;21.63;;;11.95;;
34960;SDS011;30789;52.030;7.110;2023-11-21T01:32:08;17.35;;;10.70;;
34960;SDS011;30789;52.030;7.110;2023-11-21T01:34:40;21.13;;;11.60;;
34960;SDS011;30789;52.030;7.110;2023-11-21T01:37:06;16.98;;;11.50;;
34960;SDS011;30789;52.030;7.110;2023-11-21T01:39:34;15.07;;;10.48;;
34960;SDS011;30789;52.030;7.110;2023-11-21T01:42:02;21.25;;;12.48;;
34960;SDS011;30789;52.030;7.110;2023-11-21T01:44:31;21.80;;;12.57;;
34960;SDS011;30789;52.030;7.110;2023-11-21T01:47:00;23.52;;;12.18;;
34960;SDS011;30789;52.030;7.110;2023-11-21T01:49:33;21.42;;;12.00;;
34960;SDS011;30789;52.030;7.110;2023-11-21T01:52:00;19.98;;;11.63;;
34960;SDS011;30789;52.030;7.110;2023-11-21T01:54:30;21.80;;;12.30;;
34960;SDS011;30789;52.030;7.110;2023-11-21T01:57:02;23.77;;;13.70;;
34960;SDS011;30789;52.030;7.110;2023-11-21T01:59:41;18.85;;;11.75;;
34960;SDS011;30789;52.030;7.110;2023-11-21T02:02:13;21.95;;;13.38;;
34960;SDS011;30789;52.030;7.110;2023-11-21T02:04:45;20.65;;;12.13;;
34960;SDS011;30789;52.030;7.110;2023-11-21T02:07:14;24.88;;;12.88;;
34960;SDS011;30789;52.030;7.110;2023-11-21T02:09:41;23.67;;;13.52;;
34960;SDS011;30789;52.030;7.110;2023-11-21T02:12:09;22.05;;;13.23;;
34960;SDS011;30789;52.030;7.110;2023-11-21T02:14:36;25.90;;;14.27;;
34960;SDS011;30789;52.030;7.110;2023-11-21T02:17:04;26.77;;;13.77;;
34960;SDS011;30789;52.030;7.110;2023-11-21T02:19:34;22.80;;;13.65;;
34960;SDS011;30789;52.030;7.110;2023-11-21T02:22:08;25.50;;;14.60;;
34960;SDS011;30789;52.030;7.110;2023-11-21T02:24:40;21.83;;;13.90;;
34960;SDS011;30789;52.030;7.110;2023-11-21T02:27:11;22.90;;;13.95;;
34960;SDS011;30789;52.030;7.110;2023-11-21T02:29:38;25.00;;;13.80;;
34960;SDS011;30789;52.030;7.110;2023-11-21T02:32:08;22.00;;;13.38;;
34960;SDS011;30789;52.030;7.110;2023-11-21T02:34:35;24.08;;;13.23;;
34960;SDS011;30789;52.030;7.110;2023-11-21T02:37:03;27.52;;;14.60;;
34960;SDS011;30789;52.030;7.110;2023-11-21T02:39:32;29.52;;;14.77;;
34960;SDS011;30789;52.030;7.110;2023-11-21T02:42:16;31.50;;;14.75;;
34960;SDS011;30789;52.030;7.110;2023-11-21T02:44:46;22.42;;;14.20;;
34960;SDS011;30789;52.030;7.110;2023-11-21T02:47:13;27.00;;;15.07;;
34960;SDS011;30789;52.030;7.110;2023-11-21T02:49:42;28.98;;;14.27;;
34960;SDS011;30789;52.030;7.110;2023-11-21T02:52:09;26.55;;;14.40;;
34960;SDS011;30789;52.030;7.110;2023-11-21T02:54:37;23.10;;;14.70;;
34960;SDS011;30789;52.030;7.110;2023-11-21T02:57:07;26.48;;;14.23;;
34960;SDS011;30789;52.030;7.110;2023-11-21T02:59:34;24.60;;;13.73;;
34960;SDS011;30789;52.030;7.110;2023-11-21T03:02:05;27.85;;;14.60;;
34960;SDS011;30789;52.030;7.110;2023-11-21T03:04:33;31.65;;;16.08;;
34960;SDS011;30789;52.030;7.110;2023-11-21T03:07:03;29.35;;;15.27;;
34960;SDS011;30789;52.030;7.110;2023-11-21T03:09:30;34.78;;;16.92;;
34960;SDS011;30789;52.030;7.110;2023-11-21T03:11:57;28.45;;;15.65;;
34960;SDS011;30789;52.030;7.110;2023-11-21T03:14:32;31.90;;;16.88;;
34960;SDS011;30789;52.030;7.110;2023-11-21T03:17:00;36.38;;;17.42;;
34960;SDS011;30789;52.030;7.110;2023-11-21T03:19:33;32.92;;;15.75;;
34960;SDS011;30789;52.030;7.110;2023-11-21T03:21:59;34.17;;;17.08;;
34960;SDS011;30789;52.030;7.110;2023-11-21T03:24:29;32.95;;;16.77;;
34960;SDS011;30789;52.030;7.110;2023-11-21T03:26:56;29.40;;;16.23;;
34960;SDS011;30789;52.030;7.110;2023-11-21T03:29:22;37.83;;;18.05;;
34960;SDS011;30789;52.030;7.110;2023-11-21T03:32:01;36.47;;;18.02;;
34960;SDS011;30789;52.030;7.110;2023-11-21T03:34:32;30.95;;;17.95;;
34960;SDS011;30789;52.030;7.110;2023-11-21T03:37:01;42.15;;;19.75;;
34960;SDS011;30789;52.030;7.110;2023-11-21T03:39:30;35.65;;;18.52;;
34960;SDS011;30789;52.030;7.110;2023-11-21T03:41:56;32.90;;;17.73;;
34960;SDS011;30789;52.030;7.110;2023-11-21T03:44:23;33.85;;;18.75;;
34960;SDS011;30789;52.030;7.110;2023-11-21T03:46:50;34.20;;;18.98;;
34960;SDS011;30789;52.030;7.110;2023-11-21T03:49:21;35.97;;;20.02;;
34960;SDS011;30789;52.030;7.110;2023-11-21T03:51:47;34.72;;;18.67;;
34960;SDS011;30789;52.030;7.110;2023-11-21T03:54:17;36.83;;;20.13;;
34960;SDS011;30789;52.030;7.110;2023-11-21T03:56:47;33.92;;;18.10;;
34960;SDS011;30789;52.030;7.110;2023-11-21T03:59:17;41.33;;;20.75;;
34960;SDS011;30789;52.030;7.110;2023-11-21T04:01:45;40.45;;;20.83;;
34960;SDS011;30789;52.030;7.110;2023-11-21T04:04:15;36.13;;;20.35;;
34960;SDS011;30789;52.030;7.110;2023-11-21T04:06:41;39.67;;;20.15;;
34960;SDS011;30789;52.030;7.110;2023-11-21T04:09:11;36.10;;;19.05;;
34960;SDS011;30789;52.030;7.110;2023-11-21T04:11:45;39.72;;;19.77;;
34960;SDS011;30789;52.030;7.110;2023-11-21T04:14:15;35.03;;;19.17;;
34960;SDS011;30789;52.030;7.110;2023-11-21T04:16:42;35.58;;;18.50;;
34960;SDS011;30789;52.030;7.110;2023-11-21T04:19:08;36.97;;;18.15;;
34960;SDS011;30789;52.030;7.110;2023-11-21T04:21:37;37.92;;;18.20;;
34960;SDS011;30789;52.030;7.110;2023-11-21T04:24:04;31.45;;;17.67;;
34960;SDS011;30789;52.030;7.110;2023-11-21T04:26:33;36.28;;;17.73;;
34960;SDS011;30789;52.030;7.110;2023-11-21T04:29:04;30.25;;;17.42;;
34960;SDS011;30789;52.030;7.110;2023-11-21T04:31:31;38.47;;;19.73;;
34960;SDS011;30789;52.030;7.110;2023-11-21T04:33:58;31.55;;;17.50;;
34960;SDS011;30789;52.030;7.110;2023-11-21T04:36:25;33.30;;;17.15;;
34960;SDS011;30789;52.030;7.110;2023-11-21T04:38:58;39.28;;;18.80;;
34960;SDS011;30789;52.030;7.110;2023-11-21T04:41:26;37.97;;;19.70;;
34960;SDS011;30789;52.030;7.110;2023-11-21T04:43:56;37.75;;;19.45;;
34960;SDS011;30789;52.030;7.110;2023-11-21T04:46:31;40.78;;;19.10;;
34960;SDS011;30789;52.030;7.110;2023-11-21T04:49:00;34.95;;;18.33;;
34960;SDS011;30789;52.030;7.110;2023-11-21T04:51:29;33.15;;;18.08;;
34960;SDS011;30789;52.030;7.110;2023-11-21T04:53:59;35.78;;;19.58;;
34960;SDS011;30789;52.030;7.110;2023-11-21T04:56:30;42.40;;;19.38;;
34960;SDS011;30789;52.030;7.110;2023-11-21T04:59:03;35.63;;;18.45;;
34960;SDS011;30789;52.030;7.110;2023-11-21T05:01:30;32.58;;;18.38;;
34960;SDS011;30789;52.030;7.110;2023-11-21T05:03:59;33.45;;;17.30;;
34960;SDS011;30789;52.030;7.110;2023-11-21T05:06:25;35.95;;;17.75;;
34960;SDS011;30789;52.030;7.110;2023-11-21T05:08:52;32.80;;;17.45;;
34960;SDS011;30789;52.030;7.110;2023-11-21T05:11:26;33.10;;;17.63;;
34960;SDS011;30789;52.030;7.110;2023-11-21T05:13:54;36.08;;;18.40;;
34960;SDS011;30789;52.030;7.110;2023-11-21T05:16:25;35.35;;;18.90;;
34960;SDS011;30789;52.030;7.110;2023-11-21T05:18:52;36.25;;;18.77;;
34960;SDS011;30789;52.030;7.110;2023-11-21T05:21:25;34.55;;;17.85;;
34960;SDS011;30789;52.030;7.110;2023-11-21T05:23:52;40.33;;;19.20;;
34960;SDS011;30789;52.030;7.110;2023-11-21T05:26:19;36.72;;;18.83;;
34960;SDS011;30789;52.030;7.110;2023-11-21T05:28:48;33.97;;;18.27;;
34960;SDS011;30789;52.030;7.110;2023-11-21T05:31:16;34.83;;;18.33;;
34960;SDS011;30789;52.030;7.110;2023-11-21T05:33:43;33.42;;;18.20;;
34960;SDS011;30789;52.030;7.110;2023-11-21T05:36:11;34.67;;;17.88;;
34960;SDS011;30789;52.030;7.110;2023-11-21T05:38:38;33.10;;;17.75;;
34960;SDS011;30789;52.030;7.110;2023-11-21T05:41:06;35.28;;;18.40;;
34960;SDS011;30789;52.030;7.110;2023-11-21T05:43:36;35.53;;;19.45;;
34960;SDS011;30789;52.030;7.110;2023-11-21T05:46:04;34.58;;;19.17;;
34960;SDS011;30789;52.030;7.110;2023-11-21T05:48:33;37.47;;;19.58;;
34960;SDS011;30789;52.030;7.110;2023-11-21T05:51:02;31.60;;;18.35;;
34960;SDS011;30789;52.030;7.110;2023-11-21T05:53:29;36.42;;;19.35;;
34960;SDS011;30789;52.030;7.110;2023-11-21T05:55:56;37.10;;;18.60;;
34960;SDS011;30789;52.030;7.110;2023-11-21T05:58:22;35.00;;;17.98;;
34960;SDS011;30789;52.030;7.110;2023-11-21T06:00:51;37.30;;;18.10;;
34960;SDS011;30789;52.030;7.110;2023-11-21T06:03:22;35.50;;;18.00;;
34960;SDS011;30789;52.030;7.110;2023-11-21T06:05:51;32.07;;;18.33;;
34960;SDS011;30789;52.030;7.110;2023-11-21T06:08:22;32.85;;;17.17;;
34960;SDS011;30789;52.030;7.110;2023-11-21T06:10:49;30.92;;;18.02;;
34960;SDS011;30789;52.030;7.110;2023-11-21T06:13:20;33.72;;;17.02;;
34960;SDS011;30789;52.030;7.110;2023-11-21T06:15:52;29.15;;;16.23;;
34960;SDS011;30789;52.030;7.110;2023-11-21T06:18:21;30.80;;;16.63;;
34960;SDS011;30789;52.030;7.110;2023-11-21T06:20:50;29.90;;;16.25;;
34960;SDS011;30789;52.030;7.110;2023-11-21T06:23:18;30.55;;;16.08;;
34960;SDS011;30789;52.030;7.110;2023-11-21T06:25:44;27.85;;;17.00;;
34960;SDS011;30789;52.030;7.110;2023-11-21T06:28:11;27.60;;;16.05;;
34960;SDS011;30789;52.030;7.110;2023-11-21T06:30:42;26.15;;;15.98;;
34960;SDS011;30789;52.030;7.110;2023-11-21T06:33:13;30.42;;;16.05;;
34960;SDS011;30789;52.030;7.110;2023-11-21T06:35:45;25.52;;;14.93;;
34960;SDS011;30789;52.030;7.110;2023-11-21T06:38:11;28.98;;;15.43;;
34960;SDS011;30789;52.030;7.110;2023-11-21T06:40:38;26.98;;;13.68;;
34960;SDS011;30789;52.030;7.110;2023-11-21T06:43:07;25.02;;;14.95;;
34960;SDS011;30789;52.030;7.110;2023-11-21T06:45:39;26.88;;;15.77;;
34960;SDS011;30789;52.030;7.110;2023-11-21T06:48:06;30.23;;;16.30;;
34960;SDS011;30789;52.030;7.110;2023-11-21T06:50:35;27.27;;;15.40;;
34960;SDS011;30789;52.030;7.110;2023-11-21T06:53:05;32.50;;;16.20;;
34960;SDS011;30789;52.030;7.110;2023-11-21T06:55:33;33.90;;;17.60;;
34960;SDS011;30789;52.030;7.110;2023-11-21T06:58:00;29.17;;;16.67;;
34960;SDS011;30789;52.030;7.110;2023-11-21T07:00:27;36.88;;;17.30;;
34960;SDS011;30789;52.030;7.110;2023-11-21T07:02:55;30.13;;;15.82;;
34960;SDS011;30789;52.030;7.110;2023-11-21T07:05:25;28.25;;;16.17;;
34960;SDS011;30789;52.030;7.110;2023-11-21T07:07:51;30.67;;;17.55;;
34960;SDS011;30789;52.030;7.110;2023-11-21T07:10:23;28.40;;;16.23;;
34960;SDS011;30789;52.030;7.110;2023-11-21T07:12:50;35.35;;;18.08;;
34960;SDS011;30789;52.030;7.110;2023-11-21T07:15:17;32.97;;;17.30;;
34960;SDS011;30789;52.030;7.110;2023-11-21T07:17:44;30.48;;;18.00;;
34960;SDS011;30789;52.030;7.110;2023-11-21T07:20:13;30.55;;;17.10;;
34960;SDS011;30789;52.030;7.110;2023-11-21T07:22:42;30.38;;;16.90;;
34960;SDS011;30789;52.030;7.110;2023-11-21T07:25:08;32.85;;;17.17;;
34960;SDS011;30789;52.030;7.110;2023-11-21T07:27:38;28.60;;;17.30;;
34960;SDS011;30789;52.030;7.110;2023-11-21T07:30:05;26.80;;;16.48;;
34960;SDS011;30789;52.030;7.110;2023-11-21T07:32:34;29.08;;;16.70;;
34960;SDS011;30789;52.030;7.110;2023-11-21T07:35:02;28.70;;;15.80;;
34960;SDS011;30789;52.030;7.110;2023-11-21T07:37:30;35.58;;;16.45;;
34960;SDS011;30789;52.030;7.110;2023-11-21T07:39:58;31.83;;;17.00;;
34960;SDS011;30789;52.030;7.110;2023-11-21T07:42:28;30.42;;;18.08;;
34960;SDS011;30789;52.030;7.110;2023-11-21T07:44:56;40.72;;;20.83;;
34960;SDS011;30789;52.030;7.110;2023-11-21T07:47:27;35.83;;;19.95;;
34960;SDS011;30789;52.030;7.110;2023-11-21T07:49:53;35.63;;;18.52;;
34960;SDS011;30789;52.030;7.110;2023-11-21T07:52:23;34.00;;;17.45;;
34960;SDS011;30789;52.030;7.110;2023-11-21T07:54:53;30.25;;;17.23;;
34960;SDS011;30789;52.030;7.110;2023-11-21T07:57:22;37.47;;;20.17;;
34960;SDS011;30789;52.030;7.110;2023-11-21T08:22:07;35.67;;;19.13;;
34960;SDS011;30789;52.030;7.110;2023-11-21T08:24:44;32.40;;;18.15;;
34960;SDS011;30789;52.030;7.110;2023-11-21T08:27:11;34.92;;;18.60;;
34960;SDS011;30789;52.030;7.110;2023-11-21T08:29:41;36.40;;;17.67;;
34960;SDS011;30789;52.030;7.110;2023-11-21T08:32:08;30.77;;;16.65;;
34960;SDS011;30789;52.030;7.110;2023-11-21T08:34:45;32.63;;;17.48;;
34960;SDS011;30789;52.030;7.110;2023-11-21T08:37:15;34.63;;;17.60;;
34960;SDS011;30789;52.030;7.110;2023-11-21T08:39:43;33.20;;;17.23;;
34960;SDS011;30789;52.030;7.110;2023-11-21T08:42:10;35.97;;;17.33;;
34960;SDS011;30789;52.030;7.110;2023-11-21T08:44:36;36.20;;;18.35;;
34960;SDS011;30789;52.030;7.110;2023-11-21T08:47:05;33.40;;;16.08;;
34960;SDS011;30789;52.030;7.110;2023-11-21T08:49:31;29.60;;;15.23;;
34960;SDS011;30789;52.030;7.110;2023-11-21T08:52:01;30.25;;;15.60;;
34960;SDS011;30789;52.030;7.110;2023-11-21T08:54:30;31.10;;;16.77;;
34960;SDS011;30789;52.030;7.110;2023-11-21T08:56:59;37.30;;;17.40;;
34960;SDS011;30789;52.030;7.110;2023-11-21T08:59:26;31.70;;;16.13;;
34960;SDS011;30789;52.030;7.110;2023-11-21T09:01:52;32.30;;;17.10;;
34960;SDS011;30789;52.030;7.110;2023-11-21T09:04:19;34.28;;;17.20;;
34960;SDS011;30789;52.030;7.110;2023-11-21T09:06:45;36.40;;;17.95;;
34960;SDS011;30789;52.030;7.110;2023-11-21T09:09:14;33.17;;;17.58;;
34960;SDS011;30789;52.030;7.110;2023-11-21T09:11:41;32.70;;;17.45;;
34960;SDS011;30789;52.030;7.110;2023-11-21T09:14:09;27.98;;;16.38;;
34960;SDS011;30789;52.030;7.110;2023-11-21T09:16:41;34.70;;;16.80;;
34960;SDS011;30789;52.030;7.110;2023-11-21T09:19:08;29.13;;;16.48;;
34960;SDS011;30789;52.030;7.110;2023-11-21T09:21:36;32.97;;;17.83;;
34960;SDS011;30789;52.030;7.110;2023-11-21T09:24:09;30.45;;;17.45;;
34960;SDS011;30789;52.030;7.110;2023-11-21T09:26:38;30.02;;;17.13;;
34960;SDS011;30789;52.030;7.110;2023-11-21T09:29:10;36.22;;;17.58;;
34960;SDS011;30789;52.030;7.110;2023-11-21T09:31:37;36.20;;;20.00;;
34960;SDS011;30789;52.030;7.110;2023-11-21T09:34:05;33.70;;;18.83;;
34960;SDS011;30789;52.030;7.110;2023-11-21T09:36:32;39.17;;;21.27;;
34960;SDS011;30789;52.030;7.110;2023-11-21T09:38:58;31.67;;;18.58;;
34960;SDS011;30789;52.030;7.110;2023-11-21T09:41:32;31.48;;;18.65;;
34960;SDS011;30789;52.030;7.110;2023-11-21T09:44:08;27.00;;;16.13;;
34960;SDS011;30789;52.030;7.110;2023-11-21T09:46:38;28.33;;;15.43;;
34960;SDS011;30789;52.030;7.110;2023-11-21T09:49:08;28.65;;;17.15;;
34960;SDS011;30789;52.030;7.110;2023-11-21T09:51:37;28.50;;;16.92;;
34960;SDS011;30789;52.030;7.110;2023-11-21T09:54:07;25.27;;;14.43;;
34960;SDS011;30789;52.030;7.110;2023-11-21T09:56:38;22.55;;;13.70;;
34960;SDS011;30789;52.030;7.110;2023-11-21T09:59:05;27.25;;;16.40;;
34960;SDS011;30789;52.030;7.110;2023-11-21T10:01:38;26.73;;;15.50;;
34960;SDS011;30789;52.030;7.110;2023-11-21T10:04:07;36.53;;;20.67;;
34960;SDS011;30789;52.030;7.110;2023-11-21T10:06:37;56.50;;;32.75;;
34960;SDS011;30789;52.030;7.110;2023-11-21T10:09:08;62.28;;;33.65;;
34960;SDS011;30789;52.030;7.110;2023-11-21T10:11:37;40.85;;;25.23;;
34960;SDS011;30789;52.030;7.110;2023-11-21T10:14:08;27.88;;;18.63;;
34960;SDS011;30789;52.030;7.110;2023-11-21T10:16:39;19.83;;;14.20;;
34960;SDS011;30789;52.030;7.110;2023-11-21T10:19:07;19.08;;;12.13;;
34960;SDS011;30789;52.030;7.110;2023-11-21T10:21:39;15.02;;;11.10;;
34960;SDS011;30789;52.030;7.110;2023-11-21T10:24:11;15.48;;;10.95;;
34960;SDS011;30789;52.030;7.110;2023-11-21T10:26:38;16.17;;;11.30;;
34960;SDS011;30789;52.030;7.110;2023-11-21T10:29:05;17.75;;;11.15;;
34960;SDS011;30789;52.030;7.110;2023-11-21T10:31:33;17.92;;;11.15;;
34960;SDS011;30789;52.030;7.110;2023-11-21T10:34:12;16.23;;;10.65;;
34960;SDS011;30789;52.030;7.110;2023-11-21T10:36:45;15.95;;;10.80;;
34960;SDS011;30789;52.030;7.110;2023-11-21T10:39:14;15.30;;;10.88;;
34960;SDS011;30789;52.030;7.110;2023-11-21T10:41:45;16.48;;;10.82;;
34960;SDS011;30789;52.030;7.110;2023-11-21T10:44:14;14.70;;;10.00;;
34960;SDS011;30789;52.030;7.110;2023-11-21T10:46:47;14.93;;;9.95;;
34960;SDS011;30789;52.030;7.110;2023-11-21T10:49:21;16.20;;;12.02;;
34960;SDS011;30789;52.030;7.110;2023-11-21T10:51:52;17.50;;;11.15;;
34960;SDS011;30789;52.030;7.110;2023-11-21T10:54:21;18.65;;;11.40;;
34960;SDS011;30789;52.030;7.110;2023-11-21T10:56:48;18.67;;;11.70;;
34960;SDS011;30789;52.030;7.110;2023-11-21T10:59:23;17.70;;;11.85;;
34960;SDS011;30789;52.030;7.110;2023-11-21T11:01:56;21.95;;;12.18;;
34960;SDS011;30789;52.030;7.110;2023-11-21T11:04:28;21.50;;;12.00;;
34960;SDS011;30789;52.030;7.110;2023-11-21T11:06:56;19.25;;;11.68;;
34960;SDS011;30789;52.030;7.110;2023-11-21T11:09:33;22.88;;;13.23;;
34960;SDS011;30789;52.030;7.110;2023-11-21T11:11:59;23.50;;;12.90;;
34960;SDS011;30789;52.030;7.110;2023-11-21T11:14:33;22.35;;;12.45;;
34960;SDS011;30789;52.030;7.110;2023-11-21T11:17:09;19.90;;;12.55;;
34960;SDS011;30789;52.030;7.110;2023-11-21T11:19:37;24.20;;;13.07;;
34960;SDS011;30789;52.030;7.110;2023-11-21T11:22:08;21.50;;;12.32;;
34960;SDS011;30789;52.030;7.110;2023-11-21T11:24:47;24.65;;;11.98;;
34960;SDS011;30789;52.030;7.110;2023-11-21T11:27:47;23.48;;;12.18;;
34960;SDS011;30789;52.030;7.110;2023-11-21T11:30:22;25.15;;;12.18;;
34960;SDS011;30789;52.030;7.110;2023-11-21T11:33:09;24.85;;;12.80;;
34960;SDS011;30789;52.030;7.110;2023-11-21T11:35:42;19.98;;;12.05;;
34960;SDS011;30789;52.030;7.110;2023-11-21T11:38:18;20.92;;;11.00;;
34960;SDS011;30789;52.030;7.110;2023-11-21T11:40:47;20.30;;;10.85;;
34960;SDS011;30789;52.030;7.110;2023-11-21T11:43:16;17.67;;;10.02;;
34960;SDS011;30789;52.030;7.110;2023-11-21T11:46:08;15.93;;;9.00;;
34960;SDS011;30789;52.030;7.110;2023-11-21T11:48:43;15.52;;;9.43;;
34960;SDS011;30789;52.030;7.110;2023-11-21T11:51:12;18.15;;;10.57;;
34960;SDS011;30789;52.030;7.110;2023-11-21T11:53:42;27.60;;;13.48;;
34960;SDS011;30789;52.030;7.110;2023-11-21T11:56:24;21.17;;;10.98;;
34960;SDS011;30789;52.030;7.110;2023-11-21T11:58:59;15.80;;;9.25;;
34960;SDS011;30789;52.030;7.110;2023-11-21T12:01:32;16.30;;;9.27;;
34960;SDS011;30789;52.030;7.110;2023-11-21T12:07:05;15.18;;;9.13;;
34960;SDS011;30789;52.030;7.110;2023-11-21T12:09:36;16.65;;;8.77;;
34960;SDS011;30789;52.030;7.110;2023-11-21T12:12:04;18.52;;;9.20;;
34960;SDS011;30789;52.030;7.110;2023-11-21T12:14:34;17.50;;;9.20;;
34960;SDS011;30789;52.030;7.110;2023-11-21T12:17:05;14.52;;;7.90;;
34960;SDS011;30789;52.030;7.110;2023-11-21T12:19:35;14.85;;;8.35;;
34960;SDS011;30789;52.030;7.110;2023-11-21T12:22:03;15.20;;;8.85;;
34960;SDS011;30789;52.030;7.110;2023-11-21T12:24:33;14.55;;;8.75;;
34960;SDS011;30789;52.030;7.110;2023-11-21T12:26:59;15.93;;;9.38;;
34960;SDS011;30789;52.030;7.110;2023-11-21T12:29:26;17.13;;;8.32;;
34960;SDS011;30789;52.030;7.110;2023-11-21T12:32:00;13.23;;;8.40;;
34960;SDS011;30789;52.030;7.110;2023-11-21T12:34:27;13.70;;;7.63;;
34960;SDS011;30789;52.030;7.110;2023-11-21T12:36:58;13.70;;;8.07;;
34960;SDS011;30789;52.030;7.110;2023-11-21T12:39:27;11.32;;;7.43;;
34960;SDS011;30789;52.030;7.110;2023-11-21T12:41:54;14.18;;;7.88;;
34960;SDS011;30789;52.030;7.110;2023-11-21T12:44:23;12.73;;;6.80;;
34960;SDS011;30789;52.030;7.110;2023-11-21T12:46:50;10.98;;;7.05;;
34960;SDS011;30789;52.030;7.110;2023-11-21T12:49:20;9.32;;;5.72;;
34960;SDS011;30789;52.030;7.110;2023-11-21T12:51:50;10.95;;;6.72;;
34960;SDS011;30789;52.030;7.110;2023-11-21T12:54:23;9.85;;;5.95;;
34960;SDS011;30789;52.030;7.110;2023-11-21T12:56:49;8.88;;;6.15;;
34960;SDS011;30789;52.030;7.110;2023-11-21T12:59:20;10.43;;;6.80;;
34960;SDS011;30789;52.030;7.110;2023-11-21T13:01:49;9.55;;;6.43;;
34960;SDS011;30789;52.030;7.110;2023-11-21T13:04:18;10.13;;;6.75;;
34960;SDS011;30789;52.030;7.110;2023-11-21T13:06:57;10.70;;;6.72;;
34960;SDS011;30789;52.030;7.110;2023-11-21T13:09:42;11.77;;;6.90;;
34960;SDS011;30789;52.030;7.110;2023-11-21T13:12:08;10.77;;;6.70;;
34960;SDS011;30789;52.030;7.110;2023-11-21T13:14:40;15.20;;;7.55;;
34960;SDS011;30789;52.030;7.110;2023-11-21T13:17:08;13.50;;;9.07;;
34960;SDS011;30789;52.030;7.110;2023-11-21T13:19:37;13.90;;;7.65;;
34960;SDS011;30789;52.030;7.110;2023-11-21T13:22:04;11.77;;;7.45;;
34960;SDS011;30789;52.030;7.110;2023-11-21T13:24:48;13.57;;;7.75;;
34960;SDS011;30789;52.030;7.110;2023-11-21T13:27:18;12.35;;;7.32;;
34960;SDS011;30789;52.030;7.110;2023-11-21T13:29:45;10.95;;;7.25;;
34960;SDS011;30789;52.030;7.110;2023-11-21T13:32:14;10.02;;;7.07;;
34960;SDS011;30789;52.030;7.110;2023-11-21T13:34:43;8.52;;;6.43;;
34960;SDS011;30789;52.030;7.110;2023-11-21T13:37:12;9.07;;;5.93;;
34960;SDS011;30789;52.030;7.110;2023-11-21T13:39:43;9.65;;;6.63;;
34960;SDS011;30789;52.030;7.110;2023-11-21T13:42:15;9.60;;;7.35;;
34960;SDS011;30789;52.030;7.110;2023-11-21T13:44:42;9.95;;;7.53;;
34960;SDS011;30789;52.030;7.110;2023-11-21T13:47:11;11.95;;;7.72;;
34960;SDS011;30789;52.030;7.110;2023-11-21T13:49:44;13.32;;;8.13;;
34960;SDS011;30789;52.030;7.110;2023-11-21T13:52:13;8.73;;;6.47;;
34960;SDS011;30789;52.030;7.110;2023-11-21T13:54:45;10.60;;;7.90;;
34960;SDS011;30789;52.030;7.110;2023-11-21T13:57:21;11.93;;;7.50;;
34960;SDS011;30789;52.030;7.110;2023-11-21T13:59:53;11.30;;;7.93;;
34960;SDS011;30789;52.030;7.110;2023-11-21T14:02:20;12.82;;;8.70;;
34960;SDS011;30789;52.030;7.110;2023-11-21T14:04:59;11.38;;;7.40;;
34960;SDS011;30789;52.030;7.110;2023-11-21T14:07:36;9.88;;;7.40;;
34960;SDS011;30789;52.030;7.110;2023-11-21T14:10:14;10.48;;;6.85;;
34960;SDS011;30789;52.030;7.110;2023-11-21T14:12:46;12.93;;;8.02;;
34960;SDS011;30789;52.030;7.110;2023-11-21T14:15:13;10.55;;;7.60;;
34960;SDS011;30789;52.030;7.110;2023-11-21T14:17:44;11.50;;;7.53;;
34960;SDS011;30789;52.030;7.110;2023-11-21T14:20:19;12.25;;;7.63;;
34960;SDS011;30789;52.030;7.110;2023-11-21T14:22:56;11.50;;;7.85;;
34960;SDS011;30789;52.030;7.110;2023-11-21T14:25:29;12.82;;;7.80;;
34960;SDS011;30789;52.030;7.110;2023-11-21T14:28:04;10.63;;;8.07;;
34960;SDS011;30789;52.030;7.110;2023-11-21T14:30:31;13.55;;;7.97;;
34960;SDS011;30789;52.030;7.110;2023-11-21T14:33:04;10.27;;;7.28;;
34960;SDS011;30789;52.030;7.110;2023-11-21T14:35:36;10.55;;;7.30;;
34960;SDS011;30789;52.030;7.110;2023-11-21T14:38:03;9.02;;;7.10;;
34960;SDS011;30789;52.030;7.110;2023-11-21T14:40:37;9.88;;;6.65;;
34960;SDS011;30789;52.030;7.110;2023-11-21T14:43:10;12.38;;;7.20;;
34960;SDS011;30789;52.030;7.110;2023-11-21T14:45:38;11.38;;;7.80;;
34960;SDS011;30789;52.030;7.110;2023-11-21T14:48:08;11.00;;;8.23;;
34960;SDS011;30789;52.030;7.110;2023-11-21T14:50:53;9.13;;;6.90;;
34960;SDS011;30789;52.030;7.110;2023-11-21T14:53:33;11.50;;;7.68;;
34960;SDS011;30789;52.030;7.110;2023-11-21T14:56:24;8.77;;;6.97;;
34960;SDS011;30789;52.030;7.110;2023-11-21T14:59:01;8.37;;;6.63;;
34960;SDS011;30789;52.030;7.110;2023-11-21T15:01:34;8.40;;;6.65;;
34960;SDS011;30789;52.030;7.110;2023-11-21T15:04:12;9.07;;;6.45;;
34960;SDS011;30789;52.030;7.110;2023-11-21T15:06:59;8.23;;;6.40;;